Time;durP1;ratioP1;P1;durP2;ratioP2;P2;SDS_P1;SDS_P2;PMS_P1;PMS_P2;Temp;Humidity;BMP_temperature;BMP_pressure;BME280_temperature;BME280_humidity;BME280_pressure;Samples;Min_cycle;Max_cycle;Signal;HPM_P1;HPM_P2
2021/03/28 00:02:23;;;;;;;1.50;1.30;;;;;;;;;;5030163;28;20874;-70
2021/03/28 00:05:02;;;;;;;3.00;1.40;;;;;;;;;;5029476;28;20375;-71
2021/03/28 00:07:37;;;;;;;1.38;1.10;;;;;;;;;;5030519;28;20379;-70
2021/03/28 00:10:07;;;;;;;2.60;1.10;;;;;;;;;;5029101;28;20459;-69
2021/03/28 00:12:36;;;;;;;3.15;1.30;;;;;;;;;;5028322;28;20470;-70
2021/03/28 00:15:11;;;;;;;3.42;1.80;;;;;;;;;;5028962;28;20375;-70
2021/03/28 00:17:44;;;;;;;4.00;1.60;;;;;;;;;;5029297;28;20379;-70
2021/03/28 00:20:16;;;;;;;3.42;1.60;;;;;;;;;;5029755;28;20414;-70
2021/03/28 00:23:00;;;;;;;4.05;1.30;;;;;;;;;;5045598;28;20369;-69
2021/03/28 00:25:32;;;;;;;2.90;1.23;;;;;;;;;;5050355;28;20955;-70
2021/03/28 00:27:59;;;;;;;2.45;1.00;;;;;;;;;;5049368;28;20514;-69
2021/03/28 00:30:28;;;;;;;2.50;1.40;;;;;;;;;;5050033;28;20416;-69
2021/03/28 00:36:04;;;;;;;3.00;1.30;;;;;;;;;;5021910;28;20432;-72
2021/03/28 00:38:39;;;;;;;2.45;1.20;;;;;;;;;;5049889;28;20752;-71
2021/03/28 00:41:21;;;;;;;2.70;1.10;;;;;;;;;;5049131;28;20424;-71
2021/03/28 00:43:47;;;;;;;1.00;0.70;;;;;;;;;;5049918;28;20488;-76
2021/03/28 00:46:34;;;;;;;2.20;1.10;;;;;;;;;;5049668;28;20725;-70
2021/03/28 00:49:01;;;;;;;2.53;1.02;;;;;;;;;;5052350;28;20413;-70
2021/03/28 00:51:27;;;;;;;1.63;1.30;;;;;;;;;;5054089;28;20377;-71
2021/03/28 00:53:53;;;;;;;3.72;1.52;;;;;;;;;;5053373;28;20380;-71
2021/03/28 00:56:24;;;;;;;1.10;1.00;;;;;;;;;;5053789;28;20377;-71
2021/03/28 00:59:17;;;;;;;1.20;0.90;;;5.20;99.90;;;;;;5053045;28;20377;-71
2021/03/28 01:01:52;;;;;;;1.80;0.95;;;;;;;;;;5052488;28;20771;-70
2021/03/28 01:04:24;;;;;;;2.95;0.90;;;;;;;;;;5053933;28;20385;-70
2021/03/28 01:06:50;;;;;;;1.35;1.00;;;;;;;;;;5052645;28;20460;-71
2021/03/28 01:09:31;;;;;;;2.95;1.15;;;;;;;;;;5054067;28;20477;-71
2021/03/28 01:12:16;;;;;;;2.50;1.45;;;;;;;;;;5052681;28;20392;-69
2021/03/28 01:14:47;;;;;;;1.50;0.80;;;;;;;;;;5053469;28;20729;-71
2021/03/28 01:17:31;;;;;;;1.88;1.10;;;;;;;;;;5052994;28;20396;-70
2021/03/28 01:20:15;;;;;;;3.83;1.27;;;;;;;;;;5052470;28;20420;-71
2021/03/28 01:23:02;;;;;;;2.92;1.00;;;;;;;;;;5053685;28;20381;-70
2021/03/28 01:25:47;;;;;;;3.92;1.30;;;;;;;;;;5053458;28;20397;-71
2021/03/28 01:28:15;;;;;;;4.20;1.50;;;;;;;;;;5053079;28;20376;-71
2021/03/28 01:30:45;;;;;;;3.17;1.15;;;;;;;;;;5053243;28;20385;-70
2021/03/28 01:33:18;;;;;;;2.70;1.65;;;;;;;;;;5052817;28;20376;-70
2021/03/28 01:36:04;;;;;;;2.00;1.08;;;4.30;99.90;;;;;;5053612;28;20415;-70
2021/03/28 01:38:39;;;;;;;2.33;1.15;;;;;;;;;;5053610;28;20481;-70
2021/03/28 01:41:26;;;;;;;3.70;1.60;;;;;;;;;;5051235;28;20900;-70
2021/03/28 01:44:05;;;;;;;2.42;1.42;;;4.50;99.90;;;;;;5052395;28;20392;-76
2021/03/28 01:47:03;;;;;;;1.73;1.23;;;;;;;;;;5053226;28;20385;-69
2021/03/28 01:49:35;;;;;;;1.20;1.00;;;;;;;;;;5009029;28;20460;-69
2021/03/28 01:52:08;;;;;;;3.42;1.00;;;4.10;99.90;;;;;;5052553;28;20401;-69
2021/03/28 01:54:49;;;;;;;2.38;1.15;;;;;;;;;;5053085;28;20442;-68
2021/03/28 01:57:15;;;;;;;1.90;1.10;;;;;;;;;;5050919;28;20400;-68
2021/03/28 02:00:00;;;;;;;2.45;1.00;;;;;;;;;;5052739;28;20385;-68
2021/03/28 02:02:33;;;;;;;3.72;1.20;;;;;;;;;;5053184;28;20382;-69
2021/03/28 02:05:14;;;;;;;2.97;1.10;;;;;;;;;;5051160;28;20480;-69
2021/03/28 02:07:59;;;;;;;2.78;1.30;;;4.00;99.90;;;;;;5052794;28;20388;-69
2021/03/28 02:10:41;;;;;;;3.20;1.13;;;4.20;99.90;;;;;;5052865;28;20437;-69
2021/03/28 02:13:15;;;;;;;2.70;1.50;;;;;;;;;;5051807;28;20488;-69
2021/03/28 02:16:00;;;;;;;2.60;1.10;;;;;;;;;;5052738;28;20388;-69
2021/03/28 02:18:44;;;;;;;1.98;1.20;;;;;;;;;;5051553;28;20438;-69
2021/03/28 02:21:41;;;;;;;2.47;1.30;;;4.10;99.90;;;;;;5050553;28;20457;-70
2021/03/28 02:24:10;;;;;;;4.60;1.10;;;;;;;;;;5051880;28;20644;-69
2021/03/28 02:26:40;;;;;;;4.60;1.30;;;;;;;;;;5051445;28;20390;-69
2021/03/28 02:29:09;;;;;;;2.97;1.00;;;;;;;;;;5051914;28;20373;-69
2021/03/28 02:31:46;;;;;;;2.70;1.30;;;;;;;;;;5052706;28;20417;-71
2021/03/28 02:34:30;;;;;;;3.75;0.82;;;;;;;;;;5051854;28;20377;-69
2021/03/28 02:37:13;;;;;;;2.80;1.17;;;;;;;;;;5051504;28;20867;-70
2021/03/28 02:39:50;;;;;;;2.42;1.13;;;3.50;99.90;;;;;;5052446;28;20439;-69
2021/03/28 02:42:21;;;;;;;1.75;1.30;;;;;;;;;;5050252;28;20424;-70
2021/03/28 02:45:00;;;;;;;3.50;1.20;;;;;;;;;;5052159;28;20427;-69
2021/03/28 02:48:02;;;;;;;1.27;0.80;;;3.70;99.90;;;;;;5052664;28;20471;-69
2021/03/28 02:50:55;;;;;;;3.63;0.80;;;3.30;99.90;;;;;;5052436;28;20382;-69
2021/03/28 02:53:40;;;;;;;2.00;1.20;;;;;;;;;;5051780;28;20386;-69
2021/03/28 02:56:20;;;;;;;2.10;1.10;;;3.60;99.90;;;;;;5051343;28;20425;-69
2021/03/28 02:58:55;;;;;;;2.80;1.70;;;;;;;;;;5051972;28;20440;-69
2021/03/28 03:01:22;;;;;;;2.90;1.30;;;;;;;;;;5052238;28;20862;-69
2021/03/28 03:04:03;;;;;;;1.73;1.17;;;;;;;;;;5051747;28;20966;-69
2021/03/28 03:07:03;;;;;;;1.60;1.10;;;3.60;99.90;;;;;;5050894;28;20409;-69
2021/03/28 03:09:41;;;;;;;2.40;1.30;;;;;;;;;;5050621;28;20393;-69
2021/03/28 03:12:29;;;;;;;2.20;0.90;;;3.60;99.90;;;;;;5050762;28;20377;-69
2021/03/28 03:14:55;;;;;;;1.60;0.80;;;;;;;;;;5051415;28;20451;-75
2021/03/28 03:17:23;;;;;;;1.40;0.80;;;;;;;;;;5051643;28;20377;-69
2021/03/28 03:20:27;;;;;;;1.52;1.00;;;3.70;99.90;;;;;;5051926;28;20405;-69
2021/03/28 03:23:08;;;;;;;2.33;1.08;;;;;;;;;;5033710;28;20577;-69
2021/03/28 03:26:21;;;;;;;2.03;1.00;;;3.60;99.90;;;;;;5031843;28;20502;-69
2021/03/28 03:28:49;;;;;;;4.30;1.40;;;3.60;99.90;;;;;;4999626;28;20406;-69
2021/03/28 03:31:40;;;;;;;2.40;1.10;;;;;;;;;;5030831;28;20391;-69
2021/03/28 03:34:35;;;;;;;3.22;1.48;;;3.40;99.90;;;;;;5029423;28;20386;-69
2021/03/28 03:37:46;;;;;;;1.20;1.10;;;3.30;99.90;;;;;;5010952;28;20443;-69
2021/03/28 03:40:34;;;;;;;1.17;0.95;;;3.20;99.90;;;;;;5030372;28;20417;-69
2021/03/28 03:43:10;;;;;;;2.35;1.20;;;;;;;;;;5023728;28;20395;-70
2021/03/28 03:45:45;;;;;;;1.50;1.00;;;;;;;;;;5031427;28;20470;-70
2021/03/28 03:48:11;;;;;;;1.70;1.00;;;;;;;;;;5030354;28;20383;-70
2021/03/28 03:50:57;;;;;;;1.00;0.80;;;;;;;;;;5031299;28;20736;-70
2021/03/28 03:53:42;;;;;;;1.90;1.20;;;;;;;;;;5031564;28;20455;-70
2021/03/28 03:56:45;;;;;;;1.88;0.98;;;3.20;99.90;;;;;;5030809;28;20383;-69
2021/03/28 03:59:15;;;;;;;1.73;1.08;;;;;;;;;;5030180;28;20849;-69
2021/03/28 04:01:53;;;;;;;4.00;1.57;;;3.40;99.90;;;;;;5030075;28;20540;-69
2021/03/28 04:04:22;;;;;;;2.42;1.10;;;3.10;99.90;;;;;;5030260;28;20446;-69
2021/03/28 04:06:51;;;;;;;2.28;1.30;;;;;;;;;;5030863;28;20910;-69
2021/03/28 04:09:52;;;;;;;3.20;1.20;;;3.40;99.90;;;;;;5030541;28;20504;-69
2021/03/28 04:12:46;;;;;;;4.05;1.20;;;3.40;99.90;;;;;;5022703;28;20410;-69
2021/03/28 04:15:30;;;;;;;2.17;1.00;;;;;;;;;;5030628;28;20402;-69
2021/03/28 04:17:56;;;;;;;1.90;0.88;;;3.50;99.90;;;;;;5031513;28;20363;-70
2021/03/28 04:20:47;;;;;;;3.92;0.95;;;3.40;99.90;;;;;;5029911;28;20419;-69
2021/03/28 04:23:20;;;;;;;0.90;0.90;;;3.40;99.90;;;;;;5030606;28;20507;-71
2021/03/28 04:25:55;;;;;;;2.92;1.10;;;;;;;;;;5030837;28;20460;-68
2021/03/28 04:28:30;;;;;;;2.22;1.15;;;;;;;;;;5030012;28;20383;-69
2021/03/28 04:30:56;;;;;;;2.40;1.02;;;;;;;;;;5029892;28;20933;-69
2021/03/28 04:33:25;;;;;;;1.10;0.80;;;;;;;;;;5030452;28;20387;-69
2021/03/28 04:35:51;;;;;;;3.22;1.40;;;;;;;;;;5029783;28;20387;-70
2021/03/28 04:38:30;;;;;;;3.13;1.05;;;;;;;;;;5029829;28;20723;-69
2021/03/28 04:41:02;;;;;;;1.73;0.80;;;;;;;;;;5030463;28;20513;-70
2021/03/28 04:43:40;;;;;;;3.95;1.50;;;;;;;;;;5030694;28;20800;-71
2021/03/28 04:46:06;;;;;;;2.10;0.60;;;;;;;;;;5030671;28;20378;-70
2021/03/28 04:48:56;;;;;;;1.20;1.00;;;2.90;99.90;;;;;;5030764;28;20403;-69
2021/03/28 04:51:22;;;;;;;1.00;0.80;;;;;;;;;;5030090;28;20382;-69
2021/03/28 04:54:06;;;;;;;1.30;0.90;;;;;;;;;;5030761;28;20479;-69
2021/03/28 04:56:38;;;;;;;1.17;0.93;;;;;;;;;;5030797;28;20394;-69
2021/03/28 04:59:10;;;;;;;4.18;1.15;;;;;;;;;;5028370;28;20744;-70
2021/03/28 05:02:13;;;;;;;1.58;1.08;;;3.00;99.90;;;;;;5030476;28;20411;-69
2021/03/28 05:05:14;;;;;;;2.35;0.80;;;2.80;99.90;;;;;;5029244;28;20927;-69
2021/03/28 05:08:09;;;;;;;1.30;0.90;;;2.90;99.90;;;;;;5030560;28;20391;-68
2021/03/28 05:10:54;;;;;;;3.17;1.50;;;2.70;99.90;;;;;;5030494;28;20878;-69
2021/03/28 05:13:38;;;;;;;3.40;1.00;;;;;;;;;;5029972;28;21276;-69
2021/03/28 05:16:07;;;;;;;3.08;1.60;;;;;;;;;;5029630;28;20529;-76
2021/03/28 05:19:04;;;;;;;2.20;1.20;;;2.90;99.90;;;;;;5030707;28;20414;-69
2021/03/28 05:22:07;;;;;;;2.28;0.88;;;2.50;99.90;;;;;;5030168;28;20565;-69
2021/03/28 05:25:13;;;;;;;1.70;1.00;;;3.10;99.90;;;;;;5030240;28;20426;-69
2021/03/28 05:28:05;;;;;;;4.70;1.60;;;;;;;;;;5030422;28;20416;-69
2021/03/28 05:30:37;;;;;;;2.50;1.10;;;;;;;;;;5006853;28;20481;-69
2021/03/28 05:33:22;;;;;;;3.40;1.00;;;;;;;;;;5030849;28;20420;-76
2021/03/28 05:36:00;;;;;;;1.60;1.10;;;;;;;;;;5034015;28;20871;-69
2021/03/28 05:38:44;;;;;;;2.03;1.40;;;2.70;99.90;;;;;;5033321;28;20398;-69
2021/03/28 05:41:15;;;;;;;3.10;1.20;;;;;;;;;;5032804;28;20414;-69
2021/03/28 05:43:56;;;;;;;2.00;0.95;;;;;;;;;;5032524;28;20422;-69
2021/03/28 05:47:01;;;;;;;2.20;1.00;;;2.70;99.90;;;;;;5032914;28;20485;-69
2021/03/28 05:50:04;;;;;;;2.20;1.20;;;3.00;99.90;;;;;;5032899;28;20439;-69
2021/03/28 05:52:50;;;;;;;4.50;1.10;;;2.90;99.90;;;;;;5032982;28;20500;-70
2021/03/28 05:55:37;;;;;;;5.27;1.30;;;2.90;99.90;;;;;;5031239;28;20414;-69
2021/03/28 05:58:03;;;;;;;1.30;0.98;;;;;;;;;;5033553;28;20892;-75
2021/03/28 06:00:29;;;;;;;1.90;1.10;;;;;;;;;;5032684;28;20498;-69
2021/03/28 06:03:14;;;;;;;2.45;1.10;;;;;;;;;;5033580;28;20470;-69
2021/03/28 06:05:40;;;;;;;3.20;1.40;;;;;;;;;;5033260;28;20457;-69
2021/03/28 06:08:17;;;;;;;2.03;1.33;;;3.50;99.90;;;;;;5032890;28;20379;-74
2021/03/28 06:11:13;;;;;;;1.10;0.80;;;3.50;99.90;;;;;;5032900;28;20485;-69
2021/03/28 06:14:17;;;;;;;2.20;0.90;;;3.50;99.90;;;;;;5033086;28;20419;-69
2021/03/28 06:16:51;;;;;;;1.60;1.10;;;3.40;99.90;;;;;;4972128;28;20416;-69
2021/03/28 06:19:25;;;;;;;1.40;1.05;;;;;;;;;;5023075;28;20406;-70
2021/03/28 06:22:13;;;;;;;2.25;0.95;;;3.40;99.90;;;;;;5042072;28;20446;-69
2021/03/28 06:24:39;;;;;;;3.83;1.10;;;;;;;;;;5046814;28;20574;-74
2021/03/28 06:27:05;;;;;;;3.10;1.20;;;;;;;;;;5046790;28;20459;-73
2021/03/28 06:29:34;;;;;;;2.30;1.08;;;;;;;;;;5061811;28;20382;-69
2021/03/28 06:32:16;;;;;;;2.00;1.30;;;;;;;;;;5062418;28;20454;-69
2021/03/28 06:35:00;;;;;;;1.80;1.10;;;;;;;;;;5059824;28;20396;-70
2021/03/28 06:37:35;;;;;;;2.70;1.00;;;;;;;;;;5043943;28;20387;-69
2021/03/28 06:40:07;;;;;;;1.35;1.08;;;;;;;;;;5058667;28;20452;-74
2021/03/28 06:42:33;;;;;;;2.53;1.30;;;;;;;;;;5053979;28;20387;-71
2021/03/28 06:45:06;;;;;;;2.25;1.25;;;;;;;;;;5059613;28;20384;-68
2021/03/28 06:48:05;;;;;;;2.45;1.20;;;4.90;99.90;;;;;;5058419;28;20372;-71
2021/03/28 06:50:43;;;;;;;2.80;1.30;;;;;;;;;;5052796;28;20405;-75
2021/03/28 06:53:21;;;;;;;2.65;1.67;;;4.80;99.90;;;;;;5059243;28;20385;-75
2021/03/28 06:55:52;;;;;;;2.20;0.90;;;5.40;99.90;;;;;;5052510;28;20391;-72
2021/03/28 06:58:27;;;;;;;3.53;1.55;;;;;;;;;;5046498;28;21438;-69
2021/03/28 07:00:52;;;;;;;3.47;1.00;;;5.70;99.90;;;;;;5050871;28;20403;-69
2021/03/28 07:03:18;;;;;;;2.27;1.00;;;;;;;;;;5067207;28;20394;-70
2021/03/28 07:05:47;;;;;;;3.70;1.13;;;;;;;;;;5050210;28;20382;-75
2021/03/28 07:08:33;;;;;;;2.75;1.17;;;;;;;;;;5047022;28;20387;-69
2021/03/28 07:11:23;;;;;;;1.80;1.13;;;6.30;99.90;;;;;;5051809;28;20464;-71
2021/03/28 07:14:04;;;;;;;2.30;1.00;;;;;;;;;;5054645;28;20447;-70
2021/03/28 07:17:10;;;;;;;2.58;1.08;;;5.90;99.90;;;;;;5064192;28;21039;-69
2021/03/28 07:19:36;;;;;;;2.05;1.00;;;;;;;;;;5060678;28;20411;-69
2021/03/28 07:22:35;;;;;;;2.30;1.20;;;5.70;99.90;;;;;;5061521;28;20458;-69
2021/03/28 07:25:23;;;;;;;2.40;1.33;;;7.40;99.90;;;;;;5052094;28;20410;-69
2021/03/28 07:28:09;;;;;;;2.40;1.60;;;;;;;;;;5051925;28;20448;-69
2021/03/28 07:31:19;;;;;;;2.65;1.20;;;6.50;99.90;;;;;;5051509;28;20436;-69
2021/03/28 07:34:03;;;;;;;2.72;0.90;;;6.70;99.90;;;;;;5051435;28;20429;-69
2021/03/28 07:36:38;;;;;;;1.67;1.10;;;;;;;;;;5050853;28;20412;-70
2021/03/28 07:39:41;;;;;;;2.10;0.90;;;7.00;99.90;;;;;;5051720;28;20370;-69
2021/03/28 07:42:25;;;;;;;2.23;1.03;;;;;;;;;;5051738;28;20962;-69
2021/03/28 07:45:09;;;;;;;3.05;1.30;;;7.20;99.90;;;;;;5051218;28;20377;-69
2021/03/28 07:47:52;;;;;;;3.10;1.07;;;;;;;;;;5050144;28;20988;-70
2021/03/28 07:50:48;;;;;;;1.30;0.80;;;7.30;99.90;;;;;;5050535;28;20384;-70
2021/03/28 07:53:32;;;;;;;3.53;1.00;;;;;;;;;;5050384;28;20389;-71
2021/03/28 07:56:35;;;;;;;2.70;1.40;;;7.60;99.90;;;;;;5050635;28;20397;-70
2021/03/28 07:59:04;;;;;;;1.95;1.00;;;;;;;;;;5050078;28;20481;-70
2021/03/28 08:01:30;;;;;;;2.60;1.15;;;7.90;99.90;;;;;;5050157;28;20946;-70
2021/03/28 08:03:59;;;;;;;2.70;1.30;;;;;;;;;;5050964;28;20393;-70
2021/03/28 08:06:43;;;;;;;1.37;1.10;;;;;;;;;;5050435;28;20474;-70
2021/03/28 08:09:09;;;;;;;2.45;1.20;;;;;;;;;;5051357;28;20460;-69
2021/03/28 08:11:46;;;;;;;2.42;1.00;;;8.40;99.90;;;;;;5050946;28;20390;-70
2021/03/28 08:14:30;;;;;;;1.53;1.07;;;;;;;;;;5050407;28;20421;-70
2021/03/28 08:17:14;;;;;;;4.10;1.40;;;;;;;;;;5050671;28;20435;-70
2021/03/28 08:19:57;;;;;;;4.30;1.27;;;;;;;;;;5050747;28;20919;-70
2021/03/28 08:22:49;;;;;;;1.70;0.90;;;8.50;99.90;;;;;;5036601;28;20375;-70
2021/03/28 08:25:40;;;;;;;2.20;0.90;;;8.90;99.90;;;;;;5030428;28;20399;-76
2021/03/28 08:28:11;;;;;;;2.88;0.88;;;8.60;99.90;;;;;;5029747;28;20425;-69
2021/03/28 08:31:14;;;;;;;2.40;1.23;;;9.20;99.90;;;;;;5029050;28;20478;-70
2021/03/28 08:34:20;;;;;;;2.20;1.00;;;9.40;99.90;;;;;;5030823;28;20418;-70
2021/03/28 08:37:11;;;;;;;2.67;1.50;;;9.10;99.90;;;;;;5030418;28;20385;-70
2021/03/28 08:39:46;;;;;;;2.75;1.25;;;;;;;;;;5030584;28;20696;-70
2021/03/28 08:42:37;;;;;;;1.60;1.20;;;9.70;99.90;;;;;;5030257;28;20387;-78
2021/03/28 08:45:24;;;;;;;1.80;1.10;;;9.30;99.90;;;;;;5030903;28;20890;-70
2021/03/28 08:48:01;;;;;;;1.98;1.23;;;;;;;;;;5039788;28;20391;-69
2021/03/28 08:51:00;;;;;;;3.25;1.42;;;9.80;99.90;;;;;;5048575;28;20854;-71
2021/03/28 08:53:43;;;;;;;3.40;1.30;;;;;;;;;;5049706;28;20390;-70
2021/03/28 08:56:41;;;;;;;1.60;0.98;;;10.10;98.30;;;;;;5050658;28;20373;-70
2021/03/28 08:59:47;;;;;;;2.38;1.20;;;9.60;99.90;;;;;;5050597;28;20398;-70
2021/03/28 09:02:37;;;;;;;4.10;1.20;;;10.30;98.90;;;;;;5020335;28;20398;-76
2021/03/28 09:05:06;;;;;;;6.80;1.52;;;;;;;;;;5051535;28;20389;-70
2021/03/28 09:08:03;;;;;;;2.13;1.30;;;9.90;99.90;;;;;;5042342;28;20730;-69
2021/03/28 09:10:34;;;;;;;1.38;1.27;;;;;;;;;;5033496;28;20472;-70
2021/03/28 09:13:15;;;;;;;4.17;1.70;;;;;;;;;;5048715;28;20449;-70
2021/03/28 09:15:41;;;;;;;2.10;1.10;;;;;;;;;;5037116;28;20394;-70
2021/03/28 09:18:25;;;;;;;4.45;1.95;;;10.30;99.90;;;;;;5053896;28;20382;-69
2021/03/28 09:20:54;;;;;;;3.10;1.30;;;;;;;;;;5041522;28;20732;-69
2021/03/28 09:23:23;;;;;;;1.40;1.13;;;;;;;;;;5052816;28;20451;-70
2021/03/28 09:25:59;;;;;;;2.40;1.23;;;;;;;;;;5033634;28;20528;-71
2021/03/28 09:28:44;;;;;;;1.30;0.90;;;;;;;;;;5042079;28;20453;-70
2021/03/28 09:31:09;;;;;;;1.83;1.15;;;10.30;99.90;;;;;;5053625;28;20377;-71
2021/03/28 09:33:50;;;;;;;3.30;1.67;;;;;;;;;;5035961;28;20394;-69
2021/03/28 09:36:45;;;;;;;3.95;1.30;;;10.80;96.70;;;;;;5045662;28;20467;-76
2021/03/28 09:39:19;;;;;;;2.20;1.20;;;10.80;99.90;;;;;;5044903;28;20439;-70
2021/03/28 09:41:57;;;;;;;3.67;0.80;;;;;;;;;;5044523;28;20492;-71
2021/03/28 09:44:47;;;;;;;2.70;1.20;;;10.60;94.90;;;;;;5038076;28;20385;-70
2021/03/28 09:47:16;;;;;;;2.10;0.98;;;;;;;;;;5044689;28;20374;-71
2021/03/28 09:49:55;;;;;;;4.13;1.00;;;;;;;;;;5044132;28;20417;-70
2021/03/28 09:52:53;;;;;;;3.00;1.63;;;11.00;95.40;;;;;;5043090;28;20388;-70
2021/03/28 09:55:19;;;;;;;5.63;1.13;;;;;;;;;;5045408;28;20737;-70
2021/03/28 09:57:55;;;;;;;1.48;1.20;;;;;;;;;;5044617;28;21484;-72
2021/03/28 10:00:24;;;;;;;2.73;1.00;;;11.40;92.50;;;;;;5047203;28;20416;-70
2021/03/28 10:03:24;;;;;;;3.10;0.90;;;11.50;96.60;;;;;;5047852;28;20904;-70
2021/03/28 10:05:59;;;;;;;2.60;1.05;;;;;;;;;;5016865;28;20388;-73
2021/03/28 10:08:25;;;;;;;3.80;1.10;;;;;;;;;;5047428;28;20931;-70
2021/03/28 10:11:01;;;;;;;1.90;1.00;;;;;;;;;;5047131;28;20371;-70
2021/03/28 10:13:57;;;;;;;2.20;1.35;;;11.70;95.80;;;;;;5048529;28;20420;-74
2021/03/28 10:16:26;;;;;;;3.35;1.00;;;;;;;;;;5046510;28;20389;-72
2021/03/28 10:18:58;;;;;;;2.63;0.90;;;;;;;;;;5047367;28;20400;-74
2021/03/28 10:21:27;;;;;;;1.30;0.80;;;;;;;;;;5049158;28;20531;-70
2021/03/28 10:23:53;;;;;;;2.38;0.90;;;;;;;;;;5045343;28;20882;-70
2021/03/28 10:26:22;;;;;;;1.93;1.00;;;;;;;;;;5041674;28;21867;-72
2021/03/28 10:29:07;;;;;;;2.83;0.93;;;;;;;;;;5045977;28;20392;-71
2021/03/28 10:31:36;;;;;;;1.50;0.70;;;;;;;;;;5047893;28;20387;-71
2021/03/28 10:34:21;;;;;;;2.25;0.77;;;;;;;;;;5044145;28;20392;-70
2021/03/28 10:36:53;;;;;;;2.55;0.90;;;12.60;93.70;;;;;;5040956;28;20391;-70
2021/03/28 10:39:28;;;;;;;2.00;1.20;;;;;;;;;;5047352;28;20381;-73
2021/03/28 10:42:13;;;;;;;2.03;1.23;;;;;;;;;;5047311;28;20415;-71
2021/03/28 10:44:39;;;;;;;1.92;0.95;;;;;;;;;;5046307;28;20378;-75
2021/03/28 10:47:23;;;;;;;2.00;1.15;;;;;;;;;;5048966;28;20380;-69
2021/03/28 10:49:49;;;;;;;2.72;1.00;;;;;;;;;;5044880;28;20387;-69
2021/03/28 10:52:21;;;;;;;1.52;0.95;;;;;;;;;;5049594;28;20878;-72
2021/03/28 10:55:06;;;;;;;1.55;1.00;;;;;;;;;;5043820;28;20381;-70
2021/03/28 10:57:32;;;;;;;2.47;1.20;;;;;;;;;;5047953;28;20376;-73
2021/03/28 11:00:34;;;;;;;3.80;1.08;;;12.70;91.30;;;;;;5042141;28;20398;-71
2021/03/28 11:03:19;;;;;;;3.53;1.20;;;;;;;;;;5051121;28;20396;-74
2021/03/28 11:05:57;;;;;;;4.32;1.40;;;;;;;;;;5049725;28;20795;-69
2021/03/28 11:08:38;;;;;;;4.75;1.25;;;;;;;;;;5050597;28;20714;-75
2021/03/28 11:11:07;;;;;;;3.90;1.30;;;;;;;;;;5050105;28;20393;-73
2021/03/28 11:13:43;;;;;;;2.30;1.40;;;;;;;;;;5049575;28;20405;-70
2021/03/28 11:16:09;;;;;;;1.80;1.30;;;;;;;;;;5050965;28;20386;-69
2021/03/28 11:18:38;;;;;;;1.20;0.80;;;;;;;;;;5049151;28;21562;-73
2021/03/28 11:21:10;;;;;;;2.08;1.20;;;;;;;;;;5056811;28;20410;-74
2021/03/28 11:23:48;;;;;;;5.57;1.60;;;;;;;;;;5053014;28;20722;-70
2021/03/28 11:26:14;;;;;;;3.25;1.70;;;;;;;;;;5051798;28;20393;-70
2021/03/28 11:28:46;;;;;;;2.10;1.50;;;;;;;;;;5053514;28;20395;-71
2021/03/28 11:31:12;;;;;;;2.10;1.10;;;;;;;;;;5052962;28;20403;-75
2021/03/28 11:33:45;;;;;;;3.80;1.30;;;15.30;97.40;;;;;;5053111;28;20381;-70
2021/03/28 11:36:21;;;;;;;2.33;1.33;;;;;;;;;;5052978;28;20700;-71
2021/03/28 11:39:05;;;;;;;3.45;1.27;;;;;;;;;;5055783;28;20381;-72
2021/03/28 11:41:37;;;;;;;3.90;1.10;;;;;;;;;;5049724;28;20500;-70
2021/03/28 11:44:12;;;;;;;2.40;1.08;;;;;;;;;;5052563;28;20376;-71
2021/03/28 11:46:48;;;;;;;2.83;1.20;;;;;;;;;;5066603;28;20451;-72
2021/03/28 11:49:16;;;;;;;1.98;1.45;;;;;;;;;;5071200;28;20372;-72
2021/03/28 11:52:02;;;;;;;3.50;1.10;;;;;;;;;;5068350;28;20871;-71
2021/03/28 11:54:30;;;;;;;3.00;1.10;;;;;;;;;;5069698;28;20383;-72
2021/03/28 11:57:05;;;;;;;4.72;1.20;;;;;;;;;;5069434;28;20407;-70
2021/03/28 11:59:38;;;;;;;1.20;1.10;;;;;;;;;;5068888;28;20732;-70
2021/03/28 12:02:10;;;;;;;2.15;1.30;;;17.90;69.50;;;;;;5070206;28;20404;-71
2021/03/28 12:04:40;;;;;;;1.80;0.80;;;;;;;;;;5069271;28;20387;-71
2021/03/28 12:07:18;;;;;;;2.00;1.20;;;;;;;;;;5070045;28;20397;-71
2021/03/28 12:09:48;;;;;;;3.28;1.38;;;;;;;;;;5068081;28;20471;-70
2021/03/28 12:12:15;;;;;;;2.80;1.13;;;;;;;;;;5070700;28;20404;-70
2021/03/28 12:14:42;;;;;;;2.95;0.90;;;;;;;;;;5069498;28;20893;-70
2021/03/28 12:17:11;;;;;;;2.90;1.10;;;18.30;67.90;;;;;;5071031;28;20421;-70
2021/03/28 12:19:59;;;;;;;3.30;1.40;;;18.40;80.60;;;;;;5070541;28;20402;-70
2021/03/28 12:22:37;;;;;;;2.13;0.93;;;;;;;;;;5056213;28;20934;-70
2021/03/28 12:25:12;;;;;;;1.83;1.10;;;;;;;;;;5050587;28;20398;-70
2021/03/28 12:27:56;;;;;;;3.57;1.20;;;19.20;78.90;;;;;;5049916;28;20433;-68
2021/03/28 12:30:28;;;;;;;3.25;1.40;;;;;;;;;;5050756;28;20420;-68
2021/03/28 12:33:08;;;;;;;2.00;1.05;;;;;;;;;;5050219;28;20427;-68
2021/03/28 12:35:39;;;;;;;2.10;1.10;;;18.50;75.50;;;;;;5048556;28;20904;-68
2021/03/28 12:38:26;;;;;;;1.80;0.70;;;19.60;75.20;;;;;;5050880;28;20419;-68
2021/03/28 12:41:11;;;;;;;3.60;1.50;;;;;;;;;;5050497;28;20413;-68
2021/03/28 12:43:39;;;;;;;2.17;0.85;;;;;;;;;;5055205;28;20389;-68
2021/03/28 12:46:40;;;;;;;2.75;1.48;;;;;;;;;;5057816;28;20378;-68
2021/03/28 12:49:09;;;;;;;4.63;1.35;;;20.00;74.80;;;;;;4976045;28;20400;-68
2021/03/28 12:51:40;;;;;;;2.17;1.20;;;;;;;;;;5036854;28;20408;-68
2021/03/28 12:54:24;;;;;;;1.63;1.30;;;;;;;;;;5055986;28;20397;-69
2021/03/28 12:56:52;;;;;;;3.35;1.77;;;19.10;73.60;;;;;;5056458;28;20378;-68
2021/03/28 12:59:35;;;;;;;5.10;1.20;;;18.80;86.20;;;;;;5057326;28;20377;-68
2021/03/28 13:02:25;;;;;;;1.85;1.08;;;19.50;86.20;;;;;;5057220;28;20408;-68
2021/03/28 13:04:56;;;;;;;2.15;1.30;;;;;;;;;;5056636;28;20393;-69
2021/03/28 13:07:39;;;;;;;1.80;1.40;;;;;;;;;;5057642;28;20368;-69
2021/03/28 13:10:14;;;;;;;2.77;1.10;;;;;;;;;;5057265;28;20373;-68
2021/03/28 13:12:42;;;;;;;2.25;1.33;;;;;;;;;;5056214;28;20376;-69
2021/03/28 13:15:23;;;;;;;2.00;1.30;;;19.50;83.90;;;;;;5057133;28;20373;-69
2021/03/28 13:18:21;;;;;;;1.58;1.10;;;19.80;73.10;;;;;;5055098;28;21139;-69
2021/03/28 13:20:50;;;;;;;2.40;1.07;;;19.80;73.50;;;;;;5054898;28;20478;-69
2021/03/28 13:23:27;;;;;;;1.98;1.10;;;18.90;83.20;;;;;;5036834;28;20383;-69
2021/03/28 13:26:16;;;;;;;1.50;0.90;;;20.70;76.00;;;;;;5036993;28;20407;-68
2021/03/28 13:28:54;;;;;;;1.00;0.80;;;19.90;69.10;;;;;;5029587;28;20391;-69
2021/03/28 13:31:19;;;;;;;1.83;1.10;;;20.60;79.70;;;;;;5036982;28;20379;-69
2021/03/28 13:33:47;;;;;;;1.97;1.10;;;;;;;;;;5035885;28;20391;-69
2021/03/28 13:36:16;;;;;;;1.90;1.00;;;;;;;;;;5036878;28;20545;-69
2021/03/28 13:38:56;;;;;;;2.63;0.80;;;20.10;66.50;;;;;;5034951;28;20871;-68
2021/03/28 13:41:27;;;;;;;1.85;0.70;;;20.70;79.10;;;;;;5036937;28;20410;-68
2021/03/28 13:44:01;;;;;;;1.40;0.90;;;;;;;;;;5036197;28;20387;-68
2021/03/28 13:46:28;;;;;;;2.63;0.88;;;;;;;;;;5036846;28;20378;-71
2021/03/28 13:49:01;;;;;;;1.30;0.80;;;;;;;;;;5034935;28;20391;-68
2021/03/28 13:51:28;;;;;;;1.55;0.88;;;;;;;;;;5035675;28;20727;-68
2021/03/28 13:53:53;;;;;;;2.10;0.90;;;20.70;62.70;;;;;;5033391;28;20386;-68
2021/03/28 13:56:19;;;;;;;1.63;1.00;;;;;;;;;;5033163;28;20396;-68
2021/03/28 13:58:46;;;;;;;2.38;0.98;;;;;;;;;;5032692;28;20514;-69
2021/03/28 14:01:27;;;;;;;1.30;0.80;;;20.30;59.10;;;;;;5032297;28;20439;-68
2021/03/28 14:03:58;;;;;;;1.90;0.80;;;20.50;59.00;;;;;;5032441;28;20383;-69
2021/03/28 14:06:28;;;;;;;1.70;0.80;;;;;;;;;;5033355;28;20394;-68
2021/03/28 14:09:27;;;;;;;1.10;0.70;;;20.60;70.80;;;;;;5032760;28;20455;-69
2021/03/28 14:11:58;;;;;;;1.33;0.50;;;;;;;;;;5028699;28;20577;-69
2021/03/28 14:14:27;;;;;;;1.90;0.90;;;;;;;;;;5032712;28;20469;-68
2021/03/28 14:16:55;;;;;;;1.92;0.90;;;;;;;;;;5032303;28;20376;-69
2021/03/28 14:19:32;;;;;;;2.72;0.80;;;20.00;67.90;;;;;;5031828;28;20375;-69
2021/03/28 14:22:10;;;;;;;2.20;1.20;;;;;;;;;;5031593;28;20410;-69
2021/03/28 14:24:36;;;;;;;1.10;1.00;;;;;;;;;;5030952;28;20427;-69
2021/03/28 14:27:08;;;;;;;1.25;0.90;;;21.00;54.40;;;;;;5032735;28;20372;-68
2021/03/28 14:29:34;;;;;;;1.57;0.90;;;;;;;;;;5032365;28;20399;-74
2021/03/28 14:32:12;;;;;;;2.20;1.27;;;;;;;;;;5032851;28;20793;-69
2021/03/28 14:34:38;;;;;;;1.90;1.20;;;;;;;;;;5031798;28;20379;-69
2021/03/28 14:37:29;;;;;;;1.50;1.10;;;21.60;56.70;;;;;;5032631;28;20937;-69
2021/03/28 14:40:13;;;;;;;0.80;0.77;;;21.30;54.00;;;;;;5031785;28;20402;-69
2021/03/28 14:42:50;;;;;;;0.90;0.73;;;;;;;;;;5031906;28;20525;-69
2021/03/28 14:45:21;;;;;;;1.70;0.70;;;21.20;55.40;;;;;;5032724;28;20411;-69
2021/03/28 14:47:47;;;;;;;0.90;0.60;;;;;;;;;;5031713;28;20375;-69
2021/03/28 14:50:28;;;;;;;2.00;0.90;;;;;;;;;;5032270;28;20414;-69
2021/03/28 14:53:23;;;;;;;1.10;1.00;;;21.10;50.60;;;;;;5031735;28;20398;-69
2021/03/28 14:55:57;;;;;;;1.65;0.98;;;20.60;48.60;;;;;;5031428;28;20394;-69
2021/03/28 14:58:23;;;;;;;2.83;0.77;;;;;;;;;;5032424;28;20391;-69
2021/03/28 15:00:49;;;;;;;1.27;0.82;;;;;;;;;;5031444;28;20473;-69
2021/03/28 15:03:42;;;;;;;1.10;0.80;;;22.10;54.80;;;;;;5032176;28;20379;-69
2021/03/28 15:06:26;;;;;;;2.70;1.20;;;21.10;54.40;;;;;;5031238;28;20892;-69
2021/03/28 15:08:59;;;;;;;2.15;0.90;;;21.10;61.10;;;;;;5031797;28;20451;-69
2021/03/28 15:11:46;;;;;;;2.75;0.90;;;21.20;62.70;;;;;;5032775;28;20470;-69